createdAt,value
2023-04-18T00:01:28.805Z,67.43
2023-04-18T00:03:55.382Z,67.80
2023-04-18T00:06:22.263Z,68.57
2023-04-18T00:08:49.047Z,67.92
2023-04-18T00:11:15.567Z,68.84
2023-04-18T00:13:42.110Z,67.32
2023-04-18T00:16:08.744Z,67.18
2023-04-18T00:18:37.151Z,67.94
2023-04-18T00:21:04.449Z,68.50
2023-04-18T00:23:31.111Z,68.57
2023-04-18T00:25:57.647Z,68.51
2023-04-18T00:28:24.142Z,67.82
2023-04-18T00:30:50.747Z,68.87
2023-04-18T00:33:18.769Z,68.50
2023-04-18T00:35:45.250Z,68.14
2023-04-18T00:38:11.651Z,69.12
2023-04-18T00:40:38.807Z,68.47
2023-04-18T00:43:07.761Z,69.08
2023-04-18T00:45:34.313Z,68.45
2023-04-18T00:48:00.886Z,68.94
2023-04-18T00:50:27.572Z,68.06
2023-04-18T00:52:54.620Z,68.26
2023-04-18T00:55:21.567Z,68.44
2023-04-18T00:57:48.000Z,67.71
2023-04-18T01:00:15.174Z,67.63
2023-04-18T01:02:41.602Z,67.80
2023-04-18T01:05:08.704Z,67.40
2023-04-18T01:07:37.640Z,67.22
2023-04-18T01:10:04.573Z,67.38
2023-04-18T01:12:31.261Z,67.58
2023-04-18T01:14:58.759Z,66.99
2023-04-18T01:17:25.351Z,67.32
2023-04-18T01:19:51.767Z,67.23
2023-04-18T01:22:19.912Z,67.01
2023-04-18T01:24:46.360Z,66.44
2023-04-18T01:27:13.538Z,66.73
2023-04-18T01:29:40.763Z,67.14
2023-04-18T01:32:07.453Z,66.61
2023-04-18T01:34:33.972Z,66.72
2023-04-18T01:37:00.653Z,66.58
2023-04-18T01:39:27.966Z,67.45
2023-04-18T01:41:54.375Z,67.90
2023-04-18T01:44:20.815Z,67.81
2023-04-18T01:46:47.284Z,67.13
2023-04-18T01:49:13.807Z,67.19
2023-04-18T01:51:41.037Z,66.84
2023-04-18T01:54:07.492Z,67.22
2023-04-18T01:56:33.956Z,67.62
2023-04-18T01:59:00.613Z,67.45
2023-04-18T02:01:27.214Z,67.43
2023-04-18T02:03:53.976Z,67.97
2023-04-18T02:06:20.687Z,67.74
2023-04-18T02:08:47.117Z,67.54
2023-04-18T02:11:13.562Z,67.80
2023-04-18T02:13:39.960Z,67.26
2023-04-18T02:16:11.237Z,67.24
2023-04-18T02:18:40.257Z,67.10
2023-04-18T02:21:07.182Z,66.67
2023-04-18T02:23:33.631Z,67.21
2023-04-18T02:26:00.235Z,67.89
2023-04-18T02:28:26.662Z,67.75
2023-04-18T02:30:53.134Z,68.16
2023-04-18T02:33:19.650Z,67.96
2023-04-18T02:35:46.112Z,67.49
2023-04-18T02:38:13.791Z,67.22
2023-04-18T02:40:40.211Z,67.10
2023-04-18T02:43:06.672Z,67.63
2023-04-18T02:45:33.096Z,66.70
2023-04-18T02:47:59.626Z,66.75
2023-04-18T02:50:26.948Z,67.31
2023-04-18T02:52:53.650Z,68.07
2023-04-18T02:55:21.097Z,68.88
2023-04-18T02:57:47.758Z,68.19
2023-04-18T03:00:14.540Z,68.82
2023-04-18T03:02:41.164Z,68.24
2023-04-18T03:05:08.075Z,68.06
2023-04-18T03:07:34.471Z,67.37
2023-04-18T03:10:00.887Z,67.97
2023-04-18T03:12:27.319Z,67.88
2023-04-18T03:14:53.954Z,67.94
2023-04-18T03:17:20.553Z,68.82
2023-04-18T03:19:47.030Z,68.48
2023-04-18T03:22:14.275Z,69.05
2023-04-18T03:24:40.830Z,69.01
2023-04-18T03:27:07.360Z,68.32
2023-04-18T03:29:33.980Z,69.59
2023-04-18T03:32:00.433Z,69.47
2023-04-18T03:34:27.294Z,69.26
2023-04-18T03:36:54.034Z,68.41
2023-04-18T03:39:20.566Z,68.62
2023-04-18T03:41:47.090Z,69.42
2023-04-18T03:44:13.866Z,69.09
2023-04-18T03:46:40.721Z,68.52
2023-04-18T03:49:07.128Z,68.80
2023-04-18T03:51:41.889Z,69.07
2023-04-18T03:54:08.557Z,68.89
2023-04-18T03:56:35.659Z,69.06
2023-04-18T03:59:02.137Z,68.57
2023-04-18T04:01:28.679Z,68.29
2023-04-18T04:03:55.247Z,67.60
2023-04-18T04:06:21.860Z,67.31
2023-04-18T04:08:48.215Z,67.59
2023-04-18T04:11:14.607Z,67.93
2023-04-18T04:13:41.013Z,67.48
2023-04-18T04:16:07.950Z,68.87
2023-04-18T04:18:34.379Z,67.90
2023-04-18T04:21:00.997Z,68.83
2023-04-18T04:23:27.507Z,68.42
2023-04-18T04:25:54.621Z,69.08
2023-04-18T04:28:22.762Z,69.03
2023-04-18T04:30:53.024Z,69.32
2023-04-18T04:33:20.284Z,68.67
2023-04-18T04:35:47.513Z,68.54
2023-04-18T04:38:15.314Z,68.88
2023-04-18T04:40:41.892Z,69.63
2023-04-18T04:43:12.565Z,68.37
2023-04-18T04:45:41.944Z,69.07
2023-04-18T04:48:08.948Z,69.23
2023-04-18T04:50:38.241Z,69.32
2023-04-18T04:53:06.395Z,68.51
2023-04-18T04:55:33.113Z,68.21
2023-04-18T04:57:59.751Z,67.97
2023-04-18T05:00:26.640Z,68.05
2023-04-18T05:02:55.243Z,68.64
2023-04-18T05:05:21.898Z,68.94
2023-04-18T05:07:48.304Z,69.95
2023-04-18T05:10:14.849Z,69.97
2023-04-18T05:12:41.269Z,69.62
2023-04-18T05:15:08.003Z,70.67
2023-04-18T05:17:34.755Z,69.71
2023-04-18T05:20:01.198Z,69.21
2023-04-18T05:22:27.599Z,70.19
2023-04-18T05:24:54.062Z,70.41
2023-04-18T05:27:20.543Z,69.61
2023-04-18T05:29:47.944Z,71.49
2023-04-18T05:32:14.681Z,70.46
2023-04-18T05:34:42.249Z,70.63
2023-04-18T05:37:09.012Z,70.35
2023-04-18T05:39:35.500Z,69.77
2023-04-18T05:42:02.696Z,68.82
2023-04-18T05:44:29.968Z,68.76
2023-04-18T05:46:56.380Z,68.89
2023-04-18T05:49:23.063Z,68.74
2023-04-18T05:51:49.958Z,67.75
2023-04-18T05:54:16.905Z,66.96
2023-04-18T05:56:43.363Z,66.85
2023-04-18T05:59:09.828Z,67.04
2023-04-18T06:01:36.306Z,66.73
2023-04-18T06:04:02.899Z,67.43
2023-04-18T06:06:29.411Z,67.34
2023-04-18T06:08:55.868Z,67.86
2023-04-18T06:11:22.575Z,67.37
2023-04-18T06:13:49.099Z,67.41
2023-04-18T06:16:15.585Z,66.91
2023-04-18T06:18:42.046Z,66.39
2023-04-18T06:21:08.762Z,66.91
2023-04-18T06:23:35.261Z,67.30
2023-04-18T06:26:01.724Z,68.01
2023-04-18T06:28:28.348Z,67.57
2023-04-18T06:30:54.793Z,67.68
2023-04-18T06:33:21.580Z,67.34
2023-04-18T06:35:48.301Z,67.48
2023-04-18T06:38:15.106Z,67.29
2023-04-18T06:40:41.572Z,66.25
2023-04-18T06:43:08.136Z,66.32
2023-04-18T06:45:35.453Z,66.42
2023-04-18T06:48:05.449Z,65.81
2023-04-18T06:50:32.122Z,65.10
2023-04-18T06:52:58.675Z,63.95
2023-04-18T06:55:25.520Z,64.25
2023-04-18T06:57:52.347Z,64.56
2023-04-18T07:00:19.237Z,64.54
2023-04-18T07:02:46.278Z,65.48
2023-04-18T07:05:13.474Z,66.41
2023-04-18T07:07:40.253Z,66.28
2023-04-18T07:10:09.633Z,67.22
2023-04-18T07:12:36.130Z,67.94
2023-04-18T07:15:03.755Z,67.52
2023-04-18T07:17:30.333Z,67.76
2023-04-18T07:19:56.907Z,66.75
2023-04-18T07:22:23.572Z,65.15
2023-04-18T07:24:50.087Z,66.36
2023-04-18T07:27:16.508Z,65.69
2023-04-18T07:29:42.978Z,64.90
2023-04-18T07:32:09.764Z,63.66
2023-04-18T07:34:37.512Z,64.93
2023-04-18T07:37:04.034Z,65.00
2023-04-18T07:39:35.802Z,63.72
2023-04-18T07:42:04.454Z,64.28
2023-04-18T07:44:30.979Z,63.03
2023-04-18T07:46:57.920Z,63.28
2023-04-18T07:49:24.360Z,62.85
2023-04-18T07:51:50.825Z,62.13
2023-04-18T07:54:17.268Z,62.53
2023-04-18T07:56:43.713Z,63.75
2023-04-18T07:59:10.152Z,63.99
2023-04-18T08:01:36.759Z,62.61
2023-04-18T08:04:03.643Z,64.44
2023-04-18T08:06:30.165Z,64.73
2023-04-18T08:08:58.941Z,64.69
2023-04-18T08:11:25.364Z,64.99
2023-04-18T08:13:51.818Z,65.65
2023-04-18T08:16:18.264Z,65.00
2023-04-18T08:18:44.667Z,64.68
2023-04-18T08:21:11.341Z,64.31
2023-04-18T08:23:37.741Z,64.42
2023-04-18T08:26:04.277Z,64.04
2023-04-18T08:28:30.724Z,63.91
2023-04-18T08:30:57.226Z,64.28
2023-04-18T08:33:24.494Z,64.34
2023-04-18T08:35:51.525Z,63.80
2023-04-18T08:38:19.158Z,63.56
2023-04-18T08:40:46.387Z,64.62
2023-04-18T08:43:15.043Z,65.12
2023-04-18T08:45:42.210Z,64.26
2023-04-18T08:48:15.148Z,64.27
2023-04-18T08:50:42.042Z,64.05
2023-04-18T08:53:08.995Z,62.44
2023-04-18T08:55:35.904Z,62.24
2023-04-18T08:58:04.889Z,61.88
2023-04-18T09:00:32.608Z,61.97
2023-04-18T09:02:59.292Z,61.29
2023-04-18T09:05:33.156Z,60.50
2023-04-18T09:08:02.128Z,58.24
2023-04-18T09:10:36.467Z,57.97
2023-04-18T09:13:03.532Z,57.62
2023-04-18T09:15:31.190Z,58.21
2023-04-18T09:18:00.153Z,59.53
2023-04-18T09:20:35.997Z,58.91
2023-04-18T09:23:10.681Z,60.22
2023-04-18T09:25:45.345Z,60.39
2023-04-18T09:28:53.824Z,60.30
2023-04-18T09:31:22.598Z,61.14
2023-04-18T09:33:54.509Z,59.85
2023-04-18T09:36:27.405Z,59.97
2023-04-18T09:38:56.617Z,59.20
2023-04-18T09:41:24.078Z,59.47
2023-04-18T09:43:52.097Z,60.65
2023-04-18T09:46:18.668Z,58.94
2023-04-18T09:48:45.533Z,58.74
2023-04-18T09:51:16.315Z,56.64
2023-04-18T09:53:51.033Z,53.96
2023-04-18T09:56:28.093Z,53.20
2023-04-18T09:59:06.261Z,53.53
2023-04-18T10:01:33.743Z,54.47
2023-04-18T10:04:03.600Z,52.44
2023-04-18T10:06:33.410Z,51.94
2023-04-18T10:09:04.251Z,50.87
2023-04-18T10:11:32.148Z,50.55
2023-04-18T10:14:02.585Z,53.60
2023-04-18T10:16:29.599Z,52.88
2023-04-18T10:18:56.740Z,54.37
2023-04-18T10:21:23.423Z,53.87
2023-04-18T10:23:50.530Z,54.84
2023-04-18T10:26:17.068Z,54.75
2023-04-18T10:28:54.886Z,55.49
2023-04-18T10:31:23.335Z,53.74
2023-04-18T10:34:04.001Z,54.10
2023-04-18T10:36:32.399Z,54.91
2023-04-18T10:39:21.902Z,53.68
2023-04-18T10:41:50.944Z,54.88
2023-04-18T10:44:19.983Z,54.22
2023-04-18T10:46:52.353Z,53.33
2023-04-18T10:49:31.035Z,53.98
2023-04-18T10:52:00.446Z,54.38
2023-04-18T10:54:59.136Z,56.04
2023-04-18T10:57:37.727Z,57.35
2023-04-18T11:00:05.586Z,57.73
2023-04-18T11:02:33.392Z,56.84
2023-04-18T11:05:02.120Z,57.37
2023-04-18T11:07:32.600Z,55.10
2023-04-18T11:09:59.092Z,55.11
2023-04-18T11:12:30.565Z,56.11
2023-04-18T11:14:57.132Z,56.32
2023-04-18T11:17:26.207Z,54.62
2023-04-18T11:20:11.594Z,54.95
2023-04-18T11:22:48.704Z,55.69
2023-04-18T11:25:16.744Z,55.26
2023-04-18T11:27:45.109Z,55.63
2023-04-18T11:30:13.976Z,55.97
2023-04-18T11:32:41.089Z,56.03
2023-04-18T11:35:12.279Z,55.38
2023-04-18T11:37:40.712Z,54.65
2023-04-18T11:40:10.606Z,53.34
2023-04-18T11:42:39.246Z,52.76
2023-04-18T11:45:13.069Z,53.23
2023-04-18T11:47:41.961Z,53.06
2023-04-18T11:50:10.954Z,54.69
2023-04-18T11:52:39.118Z,55.77
2023-04-18T11:55:21.851Z,57.90
2023-04-18T11:57:56.369Z,56.71
2023-04-18T12:00:36.984Z,58.14
2023-04-18T12:03:05.526Z,58.25
2023-04-18T12:05:34.732Z,59.20
2023-04-18T12:08:13.221Z,58.05
2023-04-18T12:10:53.063Z,55.48
2023-04-18T12:13:25.822Z,54.87
2023-04-18T12:15:53.040Z,53.76
2023-04-18T12:18:19.896Z,52.85
2023-04-18T12:20:52.428Z,52.98
2023-04-18T12:23:36.016Z,51.99
2023-04-18T12:26:04.187Z,49.67
2023-04-18T12:28:31.594Z,49.37
2023-04-18T12:30:58.883Z,51.00
2023-04-18T12:33:26.335Z,51.20
2023-04-18T12:35:53.808Z,51.76
2023-04-18T12:38:21.526Z,50.52
2023-04-18T12:40:49.149Z,51.38
2023-04-18T12:43:16.612Z,50.37
2023-04-18T12:45:43.283Z,49.67
2023-04-18T12:48:09.904Z,48.58
2023-04-18T12:50:36.398Z,48.52
2023-04-18T12:53:02.928Z,49.25
2023-04-18T12:55:29.700Z,49.14
2023-04-18T12:57:56.245Z,50.28
2023-04-18T13:00:24.192Z,50.83
2023-04-18T13:02:52.349Z,50.73
2023-04-18T13:05:20.773Z,52.77
2023-04-18T13:07:49.367Z,52.30
2023-04-18T13:10:20.788Z,52.10
2023-04-18T13:12:49.983Z,51.32
2023-04-18T13:15:16.861Z,51.97
2023-04-18T13:17:43.687Z,51.62
2023-04-18T13:20:12.543Z,50.78
2023-04-18T13:22:41.272Z,52.86
2023-04-18T13:25:10.430Z,50.36
2023-04-18T13:27:41.967Z,50.46
2023-04-18T13:30:10.682Z,50.27
2023-04-18T13:32:38.955Z,48.71
2023-04-18T13:35:08.198Z,49.67
2023-04-18T13:37:36.828Z,48.44
2023-04-18T13:40:05.622Z,50.61
2023-04-18T13:42:39.515Z,50.94
2023-04-18T13:45:06.286Z,51.86
2023-04-18T13:47:32.829Z,51.15
2023-04-18T13:49:59.490Z,52.54
2023-04-18T13:52:26.146Z,52.99
2023-04-18T13:54:52.904Z,52.13
2023-04-18T13:57:19.488Z,51.53
2023-04-18T13:59:45.996Z,52.52
2023-04-18T14:02:12.559Z,51.76
2023-04-18T14:04:39.138Z,50.96
2023-04-18T14:07:06.330Z,54.62
2023-04-18T14:09:33.218Z,54.91
2023-04-18T14:11:59.785Z,54.44
2023-04-18T14:14:26.262Z,53.75
2023-04-18T14:16:53.698Z,52.38
2023-04-18T14:19:20.120Z,53.07
2023-04-18T14:21:46.687Z,53.62
2023-04-18T14:24:13.298Z,54.08
2023-04-18T14:26:39.731Z,54.21
2023-04-18T14:29:06.274Z,53.76
2023-04-18T14:31:32.688Z,52.15
2023-04-18T14:33:59.253Z,51.64
2023-04-18T14:36:27.163Z,53.05
2023-04-18T14:38:54.795Z,52.11
2023-04-18T14:41:21.591Z,51.22
2023-04-18T14:43:48.326Z,51.67
2023-04-18T14:46:19.048Z,52.56
2023-04-18T14:48:48.437Z,52.28
2023-04-18T14:51:17.196Z,50.15
2023-04-18T14:53:44.703Z,50.77
2023-04-18T14:56:11.165Z,50.66
2023-04-18T14:58:37.673Z,51.39
2023-04-18T15:01:04.736Z,51.01
2023-04-18T15:03:31.520Z,50.90
2023-04-18T15:05:58.196Z,51.04
2023-04-18T15:08:24.818Z,52.00
2023-04-18T15:10:51.360Z,51.88
2023-04-18T15:13:17.787Z,50.17
2023-04-18T15:15:51.356Z,50.61
2023-04-18T15:18:17.722Z,51.37
2023-04-18T15:20:44.141Z,50.95
2023-04-18T15:23:13.576Z,50.05
2023-04-18T15:25:41.182Z,50.52
2023-04-18T15:28:07.730Z,50.24
2023-04-18T15:30:34.230Z,49.99
2023-04-18T15:33:04.024Z,53.35
2023-04-18T15:35:30.650Z,52.55
2023-04-18T15:37:57.462Z,50.82
2023-04-18T15:40:24.247Z,50.65
2023-04-18T15:42:53.527Z,51.49
2023-04-18T15:45:21.267Z,51.54
2023-04-18T15:47:47.926Z,51.99
2023-04-18T15:50:15.941Z,51.93
2023-04-18T15:52:42.556Z,51.67
2023-04-18T15:55:11.075Z,52.41
2023-04-18T15:57:37.563Z,52.69
2023-04-18T16:00:10.156Z,52.72
2023-04-18T16:02:37.023Z,51.05
2023-04-18T16:05:04.401Z,51.24
2023-04-18T16:07:31.008Z,50.56
2023-04-18T16:09:57.394Z,51.91
2023-04-18T16:12:23.885Z,52.03
2023-04-18T16:14:50.283Z,53.24
2023-04-18T16:17:16.669Z,51.88
2023-04-18T16:19:43.064Z,53.01
2023-04-18T16:22:10.490Z,54.29
2023-04-18T16:24:36.889Z,52.88
2023-04-18T16:27:03.843Z,53.17
2023-04-18T16:29:30.585Z,52.78
2023-04-18T16:31:57.001Z,53.54
2023-04-18T16:34:23.530Z,52.44
2023-04-18T16:36:51.157Z,52.77
2023-04-18T16:39:18.641Z,53.11
2023-04-18T16:41:45.243Z,52.61
2023-04-18T16:44:11.763Z,52.79
2023-04-18T16:46:38.305Z,52.97
2023-04-18T16:49:04.868Z,53.63
2023-04-18T16:51:31.401Z,53.99
2023-04-18T16:53:57.863Z,53.58
2023-04-18T16:56:24.344Z,53.48
2023-04-18T16:58:50.828Z,53.82
2023-04-18T17:01:17.199Z,54.03
2023-04-18T17:03:43.808Z,52.69
2023-04-18T17:06:10.461Z,52.49
2023-04-18T17:08:36.837Z,53.08
2023-04-18T17:11:03.333Z,54.33
2023-04-18T17:13:31.604Z,53.50
2023-04-18T17:15:58.399Z,53.20
2023-04-18T17:18:25.046Z,53.52
2023-04-18T17:20:52.406Z,53.75
2023-04-18T17:23:18.971Z,52.86
2023-04-18T17:25:46.103Z,53.31
2023-04-18T17:28:12.631Z,54.26
2023-04-18T17:30:41.310Z,55.49
2023-04-18T17:33:09.323Z,55.13
2023-04-18T17:35:36.145Z,55.26
2023-04-18T17:38:03.330Z,56.30
2023-04-18T17:40:30.023Z,55.76
2023-04-18T17:42:56.581Z,56.00
2023-04-18T17:45:23.071Z,56.70
2023-04-18T17:47:50.813Z,57.34
2023-04-18T17:50:17.594Z,57.38
2023-04-18T17:52:45.154Z,56.66
2023-04-18T17:55:11.616Z,57.38
2023-04-18T17:57:38.023Z,57.49
2023-04-18T18:00:10.397Z,56.46
2023-04-18T18:02:37.520Z,56.58
2023-04-18T18:05:05.234Z,56.14
2023-04-18T18:07:34.695Z,56.66
2023-04-18T18:10:01.532Z,57.09
2023-04-18T18:12:28.023Z,56.56
2023-04-18T18:14:54.394Z,55.64
2023-04-18T18:17:20.950Z,56.54
2023-04-18T18:19:47.426Z,56.54
2023-04-18T18:22:13.986Z,56.83
2023-04-18T18:24:40.429Z,58.61
2023-04-18T18:27:06.824Z,57.98
2023-04-18T18:29:33.212Z,57.46
2023-04-18T18:32:00.202Z,58.37
2023-04-18T18:34:27.806Z,59.02
2023-04-18T18:36:54.168Z,58.75
2023-04-18T18:39:20.881Z,58.49
2023-04-18T18:41:47.254Z,57.46
2023-04-18T18:44:13.780Z,57.82
2023-04-18T18:46:42.092Z,58.30
2023-04-18T18:49:09.938Z,58.68
2023-04-18T18:51:37.036Z,58.07
2023-04-18T18:54:03.455Z,58.82
2023-04-18T18:56:29.901Z,58.95
2023-04-18T18:58:56.289Z,58.48
2023-04-18T19:01:23.323Z,57.76
2023-04-18T19:03:50.060Z,58.70
2023-04-18T19:06:16.712Z,58.79
2023-04-18T19:08:43.142Z,59.54
2023-04-18T19:11:10.335Z,58.73
2023-04-18T19:13:36.879Z,57.86
2023-04-18T19:16:03.338Z,58.05
2023-04-18T19:18:29.859Z,58.58
2023-04-18T19:20:56.296Z,58.53
2023-04-18T19:23:25.110Z,57.92
2023-04-18T19:25:52.064Z,58.90
2023-04-18T19:28:18.591Z,58.70
2023-04-18T19:30:46.365Z,58.62
2023-04-18T19:33:13.706Z,58.77
2023-04-18T19:35:40.308Z,58.69
2023-04-18T19:38:06.745Z,59.13
2023-04-18T19:40:33.222Z,58.94
2023-04-18T19:42:59.716Z,59.09
2023-04-18T19:45:26.177Z,59.73
2023-04-18T19:47:52.735Z,59.26
2023-04-18T19:50:19.235Z,59.45
2023-04-18T19:52:45.664Z,60.34
2023-04-18T19:55:12.189Z,61.00
2023-04-18T19:57:39.810Z,59.73
2023-04-18T20:00:07.600Z,59.36
2023-04-18T20:02:34.070Z,59.62
2023-04-18T20:05:00.926Z,60.11
2023-04-18T20:07:27.610Z,60.40
2023-04-18T20:09:54.090Z,59.77
2023-04-18T20:12:20.588Z,59.49
2023-04-18T20:14:46.984Z,59.95
2023-04-18T20:17:13.554Z,59.40
2023-04-18T20:19:39.945Z,59.49
2023-04-18T20:22:06.443Z,60.53
2023-04-18T20:24:34.508Z,61.04
2023-04-18T20:27:01.676Z,60.40
2023-04-18T20:29:28.295Z,60.94
2023-04-18T20:31:54.677Z,60.66
2023-04-18T20:34:21.364Z,60.93
2023-04-18T20:36:47.860Z,62.00
2023-04-18T20:39:15.451Z,61.55
2023-04-18T20:41:48.961Z,60.96
2023-04-18T20:44:22.110Z,60.80
2023-04-18T20:46:48.597Z,61.41
2023-04-18T20:49:15.064Z,61.94
2023-04-18T20:51:41.658Z,61.84
2023-04-18T20:54:08.215Z,62.92
2023-04-18T20:56:36.720Z,63.08
2023-04-18T20:59:04.738Z,63.76
2023-04-18T21:01:31.419Z,63.41
2023-04-18T21:03:58.361Z,62.32
2023-04-18T21:06:24.856Z,62.79
2023-04-18T21:08:51.243Z,62.52
2023-04-18T21:11:17.772Z,61.93
2023-04-18T21:13:44.129Z,63.00
2023-04-18T21:16:10.814Z,64.78
2023-04-18T21:18:37.361Z,64.76
2023-04-18T21:21:04.759Z,64.29
2023-04-18T21:23:31.189Z,64.02
2023-04-18T21:25:57.674Z,63.31
2023-04-18T21:28:24.021Z,63.15
2023-04-18T21:30:50.682Z,63.61
2023-04-18T21:33:17.366Z,63.33
2023-04-18T21:35:43.716Z,63.30
2023-04-18T21:38:10.080Z,64.25
2023-04-18T21:40:37.288Z,63.78
2023-04-18T21:43:03.710Z,63.12
2023-04-18T21:45:30.139Z,63.26
2023-04-18T21:47:56.589Z,63.72
2023-04-18T21:50:23.086Z,63.67
2023-04-18T21:52:49.500Z,63.83
2023-04-18T21:55:17.688Z,63.87
2023-04-18T21:57:44.134Z,63.96
2023-04-18T22:00:11.331Z,64.34
2023-04-18T22:02:38.018Z,64.40
2023-04-18T22:05:04.972Z,63.53
2023-04-18T22:07:31.326Z,64.37
2023-04-18T22:10:05.719Z,64.04
2023-04-18T22:12:32.708Z,64.80
2023-04-18T22:14:59.137Z,65.04
2023-04-18T22:17:26.067Z,65.22
2023-04-18T22:19:53.566Z,64.17
2023-04-18T22:22:19.933Z,64.38
2023-04-18T22:24:47.640Z,64.27
2023-04-18T22:27:14.365Z,64.68
2023-04-18T22:29:40.932Z,66.22
2023-04-18T22:32:07.367Z,66.59
2023-04-18T22:34:33.904Z,66.53
2023-04-18T22:37:00.600Z,66.28
2023-04-18T22:39:27.117Z,66.73
2023-04-18T22:41:53.513Z,66.22
2023-04-18T22:44:19.971Z,66.15
2023-04-18T22:46:48.161Z,65.17
2023-04-18T22:49:14.835Z,65.95
2023-04-18T22:51:42.165Z,65.35
2023-04-18T22:54:08.589Z,64.73
2023-04-18T22:56:34.973Z,64.32
2023-04-18T22:59:01.477Z,64.91
2023-04-18T23:01:27.994Z,64.22
2023-04-18T23:03:54.684Z,64.43
2023-04-18T23:06:21.345Z,64.23
2023-04-18T23:08:47.879Z,64.63
2023-04-18T23:11:14.362Z,65.31
2023-04-18T23:13:40.750Z,66.70
2023-04-18T23:16:07.745Z,66.25
2023-04-18T23:18:34.308Z,65.98
2023-04-18T23:21:01.005Z,66.00
2023-04-18T23:23:27.426Z,65.34
2023-04-18T23:25:53.864Z,65.81
2023-04-18T23:28:20.338Z,65.26
2023-04-18T23:30:48.073Z,65.62
2023-04-18T23:33:14.457Z,66.62
2023-04-18T23:35:40.959Z,65.32
2023-04-18T23:38:07.353Z,65.59
2023-04-18T23:40:34.037Z,65.91
2023-04-18T23:43:01.379Z,65.90
2023-04-18T23:45:28.753Z,65.04
2023-04-18T23:47:55.458Z,66.08
2023-04-18T23:50:21.922Z,65.95
2023-04-18T23:52:48.358Z,64.97
2023-04-18T23:55:14.783Z,65.13
2023-04-18T23:57:41.169Z,65.50
